Time;durP1;ratioP1;P1;durP2;ratioP2;P2;SDS_P1;SDS_P2;PMS_P1;PMS_P2;Temp;Humidity;BMP_temperature;BMP_pressure;BME280_temperature;BME280_humidity;BME280_pressure;Samples;Min_cycle;Max_cycle;Signal;HPM_P1;HPM_P2
2023/03/28 00:00:25;;;;;;;2.58;0.35;;;;;;;18.49;33.46;102632.09;16108812;19;131526;-41
2023/03/28 00:05:49;;;;;;;0.65;0.40;;;;;;;18.46;33.39;102648.06;16108576;19;130228;-43
2023/03/28 00:11:19;;;;;;;0.57;0.38;;;;;;;18.44;33.35;102650.19;16111424;19;129810;-41
2023/03/28 00:16:44;;;;;;;0.57;0.30;;;;;;;18.41;33.17;102653.38;16103097;19;130988;-41
2023/03/28 00:22:07;;;;;;;0.88;0.30;;;;;;;18.40;33.30;102656.34;16110343;19;130582;-41
2023/03/28 00:27:29;;;;;;;1.10;0.43;;;;;;;18.37;33.58;102656.72;16110870;19;131109;-42
2023/03/28 00:32:51;;;;;;;0.88;0.32;;;;;;;18.33;33.23;102645.19;16107096;19;129600;-45
2023/03/28 00:38:14;;;;;;;1.60;0.40;;;;;;;18.33;33.36;102644.31;16108319;19;129437;-48
2023/03/28 00:43:44;;;;;;;0.68;0.40;;;;;;;18.31;33.65;102639.00;16106359;19;130554;-43
2023/03/28 00:49:20;;;;;;;0.95;0.30;;;;;;;18.28;33.62;102640.22;16106024;19;130560;-48
2023/03/28 00:54:42;;;;;;;0.93;0.27;;;;;;;18.23;33.71;102628.91;16113880;19;129551;-41
2023/03/28 01:00:11;;;;;;;2.53;0.40;;;;;;;18.24;33.74;102626.97;16123327;19;131088;-49
2023/03/28 01:05:34;;;;;;;0.85;0.63;;;;;;;18.20;33.30;102618.22;16117396;19;129449;-50
2023/03/28 01:10:57;;;;;;;2.28;0.30;;;;;;;18.19;33.58;102624.81;16121079;19;129582;-45
2023/03/28 01:16:21;;;;;;;1.20;0.40;;;;;;;18.19;33.75;102621.22;16120059;19;131347;-46
2023/03/28 01:22:08;;;;;;;2.60;0.38;;;;;;;18.16;33.79;102605.81;16118031;19;130347;-49
2023/03/28 01:27:43;;;;;;;1.05;0.40;;;;;;;18.15;33.68;102604.16;16119811;19;130659;-49
2023/03/28 01:33:18;;;;;;;1.20;0.43;;;;;;;18.12;33.64;102602.63;16113333;19;130055;-47
2023/03/28 01:39:08;;;;;;;0.87;0.40;;;;;;;18.10;33.81;102603.88;16120085;19;130818;-51
2023/03/28 01:44:37;;;;;;;2.15;0.50;;;;;;;18.07;33.80;102610.69;16114405;19;130519;-51
2023/03/28 01:50:36;;;;;;;2.35;0.40;;;;;;;18.06;33.96;102608.97;16117815;19;129707;-49
2023/03/28 01:56:10;;;;;;;1.15;0.40;;;;;;;18.03;33.85;102612.13;16117718;19;129896;-48
2023/03/28 02:02:04;;;;;;;0.98;0.43;;;;;;;18.02;33.98;102606.81;16115637;19;131612;-43
2023/03/28 02:07:27;;;;;;;0.82;0.40;;;;;;;17.99;33.87;102605.28;16116574;19;129838;-41
2023/03/28 02:12:56;;;;;;;0.57;0.30;;;;;;;17.98;33.85;102603.56;16116691;19;129698;-42
2023/03/28 02:18:22;;;;;;;0.85;0.40;;;;;;;17.96;33.57;102603.78;16119904;19;129869;-44
2023/03/28 02:23:49;;;;;;;0.43;0.28;;;;;;;17.95;33.64;102604.00;16118360;19;129347;-44
2023/03/28 02:29:12;;;;;;;0.85;0.35;;;;;;;17.92;33.72;102599.69;16109041;19;129707;-43
2023/03/28 02:34:35;;;;;;;1.35;0.50;;;;;;;17.92;33.90;102591.38;16117058;19;130406;-45
2023/03/28 02:39:56;;;;;;;1.55;0.32;;;;;;;17.89;33.69;102586.28;16114254;19;129541;-45
2023/03/28 02:45:53;;;;;;;0.60;0.30;;;;;;;17.90;33.68;102589.88;16119366;19;129369;-42
2023/03/28 02:51:18;;;;;;;0.35;0.35;;;;;;;17.85;34.18;102588.56;16108498;19;133427;-45
2023/03/28 02:56:55;;;;;;;0.38;0.30;;;;;;;17.85;33.83;102587.72;16116656;19;131073;-44
2023/03/28 03:02:20;;;;;;;0.38;0.32;;;;;;;17.82;33.80;102591.75;16115372;19;130400;-42
2023/03/28 03:07:42;;;;;;;2.63;0.47;;;;;;;17.80;33.79;102588.31;16115879;19;130422;-41
2023/03/28 03:13:03;;;;;;;1.25;0.40;;;;;;;17.78;34.16;102589.59;16115426;19;129627;-41
2023/03/28 03:18:26;;;;;;;1.67;0.30;;;;;;;17.77;33.96;102591.47;16112667;19;130040;-41
2023/03/28 03:23:49;;;;;;;1.35;0.63;;;;;;;17.76;34.18;102581.47;16111908;19;129781;-42
2023/03/28 03:29:11;;;;;;;0.68;0.40;;;;;;;17.75;33.95;102593.59;16113411;19;130433;-42
2023/03/28 03:34:33;;;;;;;0.77;0.50;;;;;;;17.73;34.03;102581.84;16111260;19;129075;-42
2023/03/28 03:39:54;;;;;;;1.48;0.50;;;;;;;17.72;34.22;102571.00;16112530;19;131502;-43
2023/03/28 03:45:16;;;;;;;1.60;0.40;;;;;;;17.71;33.95;102558.22;16112559;19;131682;-43
2023/03/28 03:50:39;;;;;;;0.55;0.20;;;;;;;17.69;34.13;102561.19;16110737;19;129432;-42
2023/03/28 03:56:05;;;;;;;0.55;0.30;;;;;;;17.68;34.28;102567.78;16113437;19;130528;-42
2023/03/28 04:01:28;;;;;;;0.38;0.28;;;;;;;17.66;34.32;102567.13;16110800;19;129798;-42
2023/03/28 04:06:50;;;;;;;0.57;0.28;;;;;;;17.63;34.32;102559.19;16111932;19;129803;-44
2023/03/28 04:12:13;;;;;;;1.27;0.50;;;;;;;17.63;34.01;102570.28;16108041;19;132408;-44
2023/03/28 04:17:36;;;;;;;0.60;0.40;;;;;;;17.61;34.37;102570.47;16109559;19;130085;-42
2023/03/28 04:22:59;;;;;;;1.10;0.30;;;;;;;17.59;34.45;102555.16;16107205;19;129679;-40
2023/03/28 04:28:26;;;;;;;0.73;0.35;;;;;;;17.58;34.21;102550.66;16110341;19;131113;-41
2023/03/28 04:33:48;;;;;;;0.95;0.30;;;;;;;17.56;34.11;102550.00;16125957;19;130497;-44
2023/03/28 04:39:10;;;;;;;1.50;0.50;;;;;;;17.53;34.07;102546.53;16121179;19;130250;-41
2023/03/28 04:44:32;;;;;;;0.63;0.30;;;;;;;17.53;34.41;102551.22;16124859;19;129840;-42
2023/03/28 04:49:54;;;;;;;0.50;0.30;;;;;;;17.52;34.36;102555.91;16122748;19;129339;-42
2023/03/28 04:55:16;;;;;;;0.63;0.28;;;;;;;17.50;34.38;102558.00;16123994;19;129810;-42
2023/03/28 05:00:38;;;;;;;0.40;0.30;;;;;;;17.49;34.51;102555.44;16126275;19;129454;-42
2023/03/28 05:06:00;;;;;;;0.32;0.25;;;;;;;17.50;34.65;102555.22;16124616;19;130482;-41
2023/03/28 05:11:22;;;;;;;0.75;0.43;;;;;;;17.80;34.04;102559.75;16125180;19;129522;-42
2023/03/28 05:16:44;;;;;;;0.40;0.20;;;;;;;18.13;33.82;102568.31;16117666;19;129734;-41
2023/03/28 05:22:06;;;;;;;0.98;0.45;;;;;;;18.54;33.68;102563.06;16117969;19;130698;-41
2023/03/28 05:27:28;;;;;;;1.25;0.40;;;;;;;18.97;33.27;102567.47;16120266;19;129764;-41
2023/03/28 05:32:50;;;;;;;1.17;0.40;;;;;;;19.21;32.95;102557.75;16122309;19;129525;-41
2023/03/28 05:38:13;;;;;;;5.55;0.70;;;;;;;19.30;32.69;102567.59;16124324;19;129362;-41
2023/03/28 05:43:35;;;;;;;0.55;0.30;;;;;;;19.27;32.90;102564.38;16119575;19;130119;-41
2023/03/28 05:48:57;;;;;;;0.40;0.15;;;;;;;19.20;32.85;102567.13;16119678;19;130409;-43
2023/03/28 05:54:19;;;;;;;1.58;0.43;;;;;;;19.14;32.63;102565.19;16119610;19;130286;-44
2023/03/28 05:59:42;;;;;;;1.55;0.40;;;;;;;19.06;32.71;102567.09;16119831;19;133863;-41
2023/03/28 06:05:04;;;;;;;0.98;0.50;;;;;;;18.99;33.10;102576.44;16118779;19;129885;-41
2023/03/28 06:10:26;;;;;;;0.65;0.35;;;;;;;;;;16119052;19;129500;-43
2023/03/28 06:15:48;;;;;;;2.80;0.47;;;;;;;18.85;33.38;102570.00;16118638;19;130452;-41
2023/03/28 06:21:09;;;;;;;0.65;0.40;;;;;;;18.82;33.16;102584.28;16119652;19;129985;-41
2023/03/28 06:26:31;;;;;;;2.65;0.52;;;;;;;18.80;33.42;102583.63;16118807;19;129595;-43
2023/03/28 06:31:53;;;;;;;1.13;0.57;;;;;;;18.77;33.22;102588.53;16120801;19;131564;-42
2023/03/28 06:37:15;;;;;;;1.35;0.40;;;;;;;18.73;33.69;102580.84;16117215;19;129512;-44
2023/03/28 06:42:37;;;;;;;1.45;0.40;;;;;;;18.66;33.87;102578.03;16116716;19;131878;-44
2023/03/28 06:47:59;;;;;;;0.80;0.50;;;;;;;18.71;33.73;102586.56;16118354;19;129252;-41
2023/03/28 06:53:21;;;;;;;3.22;0.80;;;;;;;18.85;33.39;102586.63;16118779;19;130215;-45
2023/03/28 06:58:43;;;;;;;2.70;0.60;;;;;;;19.00;33.28;102595.66;16115512;19;130952;-41
2023/03/28 07:04:05;;;;;;;3.30;0.40;;;;;;;19.11;33.58;102596.09;16115210;19;129539;-41
2023/03/28 07:09:27;;;;;;;2.55;0.70;;;;;;;19.21;33.06;102591.03;16116307;19;129837;-42
2023/03/28 07:14:49;;;;;;;3.03;0.85;;;;;;;19.42;33.14;102591.94;16116280;19;130333;-42
2023/03/28 07:20:11;;;;;;;1.02;0.45;;;;;;;19.62;32.63;102591.97;16115335;19;129747;-41
2023/03/28 07:25:33;;;;;;;2.03;0.50;;;;;;;19.72;32.49;102589.63;16115667;19;131246;-47
2023/03/28 07:30:55;;;;;;;3.22;0.70;;;;;;;19.76;32.87;102603.94;16115495;19;129801;-42
2023/03/28 07:36:19;;;;;;;3.75;0.60;;;;;;;19.75;32.72;102597.53;16115030;19;129561;-45
2023/03/28 07:41:41;;;;;;;3.85;0.82;;;;;;;19.85;32.75;102591.53;16115028;19;130207;-44
2023/03/28 07:47:03;;;;;;;3.22;0.70;;;;;;;20.06;32.79;102592.44;16117034;19;129848;-45
2023/03/28 07:52:25;;;;;;;2.58;0.57;;;;;;;20.27;32.60;102588.53;16118903;19;130972;-44
2023/03/28 07:57:47;;;;;;;3.42;0.70;;;;;;;20.48;33.08;102587.41;16112550;19;129427;-44
2023/03/28 08:03:11;;;;;;;2.33;0.80;;;;;;;20.72;32.62;102591.41;16113007;19;129360;-43
2023/03/28 08:08:33;;;;;;;3.60;0.68;;;;;;;20.84;32.62;102594.34;16130571;19;129576;-46
2023/03/28 08:13:55;;;;;;;3.60;0.90;;;;;;;20.87;32.26;102598.63;16130499;19;129491;-45
2023/03/28 08:19:17;;;;;;;2.90;0.73;;;;;;;20.86;32.16;102603.34;16136402;19;129619;-42
2023/03/28 08:24:39;;;;;;;2.88;0.75;;;;;;;20.82;32.35;102590.94;16129691;19;129399;-41
2023/03/28 08:30:01;;;;;;;1.88;0.65;;;;;;;20.72;32.39;102576.63;16125303;19;133667;-45
2023/03/28 08:35:23;;;;;;;6.40;1.17;;;;;;;20.61;32.30;102567.06;16122965;19;130772;-43
2023/03/28 08:40:57;;;;;;;2.20;0.70;;;;;;;20.46;32.43;102570.09;16125376;19;130916;-40
2023/03/28 08:46:21;;;;;;;5.95;0.85;;;;;;;20.29;32.79;102575.25;16126092;19;129299;-41
2023/03/28 08:51:47;;;;;;;5.22;0.75;;;;;;;20.13;33.03;102582.97;16124883;19;130695;-41
2023/03/28 08:57:18;;;;;;;2.60;0.95;;;;;;;19.99;32.93;102582.16;16122004;19;131570;-41
2023/03/28 09:02:41;;;;;;;2.97;1.13;;;;;;;19.84;32.58;102573.16;16117403;19;129676;-43
2023/03/28 09:08:34;;;;;;;4.97;1.25;;;;;;;19.74;32.37;102569.97;16118860;19;130089;-41
2023/03/28 09:14:16;;;;;;;4.93;1.25;;;;;;;19.60;32.40;102566.34;16115375;19;131039;-46
2023/03/28 09:19:47;;;;;;;6.35;1.20;;;;;;;19.52;32.88;102551.59;16116049;19;131788;-44
2023/03/28 09:25:15;;;;;;;3.33;0.90;;;;;;;19.48;32.54;102546.69;16122498;19;131084;-40
2023/03/28 09:30:43;;;;;;;4.03;1.00;;;;;;;19.43;32.61;102543.72;16120424;19;129122;-41
2023/03/28 09:36:19;;;;;;;2.95;1.13;;;;;;;19.42;32.86;102544.78;16119592;19;129564;-41
2023/03/28 09:42:10;;;;;;;2.28;1.08;;;;;;;19.35;32.63;102531.72;16118773;19;131261;-41
2023/03/28 09:47:32;;;;;;;3.78;1.13;;;;;;;19.31;32.66;102518.50;16119634;19;130748;-42
2023/03/28 09:52:57;;;;;;;6.75;1.40;;;;;;;19.28;33.13;102519.78;16117533;19;129453;-41
2023/03/28 09:58:19;;;;;;;2.53;0.95;;;;;;;19.22;32.86;102504.84;15966499;19;2954653;-41
2023/03/28 10:03:51;;;;;;;7.03;1.40;;;;;;;19.20;32.75;102489.44;16121394;19;135956;-42
2023/03/28 10:09:19;;;;;;;6.32;1.40;;;;;;;19.12;31.49;102492.41;16118094;19;130943;-43
2023/03/28 10:14:46;;;;;;;4.88;1.30;;;;;;;19.02;31.15;102482.59;16119304;19;132630;-44
2023/03/28 10:20:20;;;;;;;5.95;1.30;;;;;;;19.10;31.10;102483.44;16119302;19;129490;-42
2023/03/28 10:25:44;;;;;;;6.97;1.35;;;;;;;19.37;30.88;102484.34;16116166;19;129474;-42
2023/03/28 10:31:18;;;;;;;6.45;1.30;;;;;;;19.83;29.80;102477.91;16116396;19;129128;-43
2023/03/28 10:36:42;;;;;;;4.35;1.20;;;;;;;20.34;29.46;102469.00;16115664;19;129506;-42
2023/03/28 10:42:04;;;;;;;9.20;1.23;;;;;;;20.75;28.72;102460.25;16117667;19;131464;-42
2023/03/28 10:47:26;;;;;;;3.97;1.20;;;;;;;21.05;28.72;102458.75;16113214;19;129231;-41
2023/03/28 10:52:53;;;;;;;7.95;1.23;;;;;;;21.22;28.84;102442.38;16112479;19;129281;-45
2023/03/28 10:58:26;;;;;;;5.93;1.55;;;;;;;21.24;28.49;102431.00;16117357;19;130120;-42
2023/03/28 11:04:09;;;;;;;9.35;1.02;;;;;;;21.15;28.39;102428.53;16116834;19;130453;-41
2023/03/28 11:09:56;;;;;;;5.10;0.95;;;;;;;21.02;28.70;102412.78;16115214;19;129303;-41
2023/03/28 11:15:47;;;;;;;4.93;0.80;;;;;;;20.84;29.24;102405.22;16115919;19;129484;-42
2023/03/28 11:21:40;;;;;;;6.60;1.23;;;;;;;20.69;29.09;102390.72;16114190;19;128912;-43
2023/03/28 11:27:10;;;;;;;3.08;0.90;;;;;;;20.52;29.34;102385.72;16112412;19;130000;-41
2023/03/28 11:32:44;;;;;;;2.78;0.80;;;;;;;20.38;29.64;102367.41;16115603;19;130294;-43
2023/03/28 11:38:21;;;;;;;10.32;1.20;;;;;;;20.24;30.05;102349.97;16111876;19;130151;-42
2023/03/28 11:43:50;;;;;;;2.22;0.77;;;;;;;20.12;29.86;102350.66;16112982;19;129776;-42
2023/03/28 11:49:21;;;;;;;5.90;0.90;;;;;;;20.02;30.06;102335.56;16113652;19;130818;-51
2023/03/28 11:55:10;;;;;;;5.40;0.90;;;;;;;19.91;30.39;102331.50;16114676;19;131193;-48
2023/03/28 12:00:42;;;;;;;3.55;1.00;;;;;;;19.79;30.59;102320.25;16112625;19;130452;-51
2023/03/28 12:06:11;;;;;;;2.63;0.60;;;;;;;19.72;30.72;102314.72;16112318;19;129916;-50
2023/03/28 12:11:41;;;;;;;4.03;0.60;;;;;;;19.63;31.01;102310.50;16110166;19;130361;-49
2023/03/28 12:17:15;;;;;;;5.82;1.13;;;;;;;19.57;31.22;102305.81;16111675;19;129546;-49
2023/03/28 12:22:43;;;;;;;5.22;0.85;;;;;;;19.53;31.13;102297.09;16116877;19;129259;-52
2023/03/28 12:28:21;;;;;;;5.78;1.27;;;;;;;19.51;31.13;102285.34;16112343;19;130116;-48
2023/03/28 12:34:07;;;;;;;26.42;2.10;;;;;;;19.46;31.53;102286.00;16110032;19;129896;-51
2023/03/28 12:39:37;;;;;;;;;;;;;;;19.40;31.86;102266.59;16109606;19;129880;-42
2023/03/28 12:45:05;;;;;;;10.23;1.50;;;;;;;19.38;31.64;102253.78;16113963;19;131613;-51
2023/03/28 12:50:57;;;;;;;10.15;1.63;;;;;;;19.37;31.51;102240.97;16117934;19;130931;-48
2023/03/28 12:56:20;;;;;;;9.35;1.50;;;;;;;19.34;31.91;102235.03;16126374;19;129956;-48
2023/03/28 13:01:48;;;;;;;10.40;1.52;;;;;;;19.35;32.07;102229.25;16124515;19;129423;-51
2023/03/28 13:07:47;;;;;;;10.23;1.70;;;;;;;19.34;31.75;102235.88;16124328;19;129504;-52
2023/03/28 13:13:24;;;;;;;6.00;1.08;;;;;;;19.35;31.69;102237.56;16122778;19;129675;-51
2023/03/28 13:18:48;;;;;;;11.20;1.20;;;;;;;19.31;32.36;102225.22;16124734;19;129825;-52
2023/03/28 13:24:39;;;;;;;5.50;1.00;;;;;;;19.29;33.62;102213.50;16122118;19;129423;-49
2023/03/28 13:30:13;;;;;;;4.40;1.00;;;;;;;19.27;34.08;102210.06;16119814;19;131750;-53
2023/03/28 13:35:47;;;;;;;7.35;1.25;;;;;;;19.23;34.82;102208.81;16122020;19;130589;-50
2023/03/28 13:41:32;;;;;;;6.60;0.90;;;;;;;19.21;35.10;102199.84;16121512;19;129795;-50
2023/03/28 13:46:55;;;;;;;5.32;1.25;;;;;;;19.17;35.09;102199.41;16117755;19;129530;-51
2023/03/28 13:52:21;;;;;;;8.73;1.17;;;;;;;19.16;35.59;102197.69;16120770;19;130813;-51
2023/03/28 13:57:44;;;;;;;;;;;;;;;19.10;35.94;102189.41;16120195;19;130207;-50
2023/03/28 14:03:13;;;;;;;7.28;0.88;;;;;;;19.12;36.37;102170.63;16118086;19;129689;-49
2023/03/28 14:08:35;;;;;;;2.58;1.05;;;;;;;19.06;36.84;102162.13;16121886;19;129895;-49
2023/03/28 14:14:16;;;;;;;6.60;1.00;;;;;;;19.04;37.21;102155.94;16119502;19;129295;-52
2023/03/28 14:19:45;;;;;;;2.67;0.60;;;;;;;19.01;37.48;102141.66;16118344;19;129617;-51
2023/03/28 14:25:12;;;;;;;3.70;0.73;;;;;;;19.00;37.81;102135.25;16117041;19;130818;-49
2023/03/28 14:30:39;;;;;;;2.90;0.65;;;;;;;19.14;37.95;102113.84;16117336;19;130963;-50
2023/03/28 14:36:04;;;;;;;9.10;1.05;;;;;;;19.46;37.39;102108.38;16119474;19;134477;-50
2023/03/28 14:41:28;;;;;;;8.07;1.10;;;;;;;19.82;35.60;102092.09;16120106;19;130545;-49
2023/03/28 14:46:55;;;;;;;8.02;1.27;;;;;;;20.09;34.75;102073.31;16116502;19;129445;-52
2023/03/28 14:52:26;;;;;;;8.73;0.88;;;;;;;20.31;34.40;102072.03;16117158;19;129304;-46
2023/03/28 14:57:52;;;;;;;3.47;0.80;;;;;;;20.51;35.10;102052.34;16118452;19;129457;-41
2023/03/28 15:03:19;;;;;;;;;;;;;;;20.74;35.37;102037.72;16117742;19;130787;-45
2023/03/28 15:08:43;;;;;;;5.47;1.00;;;;;;;20.99;34.93;102042.34;16115407;19;133669;-42
2023/03/28 15:14:28;;;;;;;6.03;0.90;;;;;;;21.00;35.20;102027.38;16113959;19;130819;-43
2023/03/28 15:19:57;;;;;;;4.72;1.00;;;;;;;20.92;35.42;102022.97;16112410;19;131350;-42
2023/03/28 15:25:20;;;;;;;10.98;1.30;;;;;;;20.79;35.86;102015.69;16110993;19;130677;-43
2023/03/28 15:30:44;;;;;;;7.13;1.38;;;;;;;20.63;36.18;101996.81;16113477;19;131092;-43
2023/03/28 15:36:32;;;;;;;4.78;0.80;;;;;;;20.48;36.67;101989.72;16113205;19;130035;-44
2023/03/28 15:41:59;;;;;;;5.43;1.05;;;;;;;20.33;36.90;101980.94;16116722;19;130853;-42
2023/03/28 15:47:24;;;;;;;4.45;0.80;;;;;;;20.18;37.12;101978.53;16114226;19;134623;-46
2023/03/28 15:52:46;;;;;;;7.35;0.80;;;;;;;20.03;37.07;101977.00;16113687;19;130484;-44
2023/03/28 15:58:17;;;;;;;3.05;0.70;;;;;;;19.92;36.45;101969.38;16110249;19;131678;-42
2023/03/28 16:03:39;;;;;;;5.82;1.00;;;;;;;19.77;36.49;101967.00;16114811;19;129410;-45
2023/03/28 16:09:22;;;;;;;7.57;1.52;;;;;;;19.65;36.51;101964.97;16110716;19;130419;-42
2023/03/28 16:14:47;;;;;;;6.78;1.25;;;;;;;19.53;36.17;101966.78;16107750;19;129751;-42
2023/03/28 16:20:21;;;;;;;6.13;1.33;;;;;;;19.45;36.19;101967.03;16108191;19;129618;-41
2023/03/28 16:25:43;;;;;;;4.53;1.73;;;;;;;19.37;36.50;101957.09;16116318;19;129749;-44
2023/03/28 16:31:05;;;;;;;7.72;1.40;;;;;;;19.30;37.49;101961.84;16126014;19;129907;-42
2023/03/28 16:36:27;;;;;;;8.50;1.27;;;;;;;19.41;38.09;101952.78;16126018;19;130832;-42
2023/03/28 16:41:49;;;;;;;9.65;1.48;;;;;;;19.62;37.95;101950.69;16122697;19;129561;-43
2023/03/28 16:47:10;;;;;;;8.68;1.30;;;;;;;19.77;38.18;101955.88;16126562;19;131416;-42
2023/03/28 16:52:37;;;;;;;5.95;1.50;;;;;;;19.81;37.78;101959.91;16125593;19;129668;-46
2023/03/28 16:57:59;;;;;;;5.93;1.48;;;;;;;19.77;38.40;101951.16;16126833;19;129579;-44
2023/03/28 17:03:22;;;;;;;10.82;1.55;;;;;;;19.74;38.34;101957.19;16127057;19;131276;-42
2023/03/28 17:08:44;;;;;;;6.95;1.60;;;;;;;19.65;38.21;101961.31;16118604;19;129839;-42
2023/03/28 17:14:06;;;;;;;6.68;1.63;;;;;;;19.55;38.47;101959.09;16122518;19;131236;-50
2023/03/28 17:19:28;;;;;;;6.32;1.40;;;;;;;19.48;38.34;101958.28;16123532;19;129839;-46
2023/03/28 17:24:50;;;;;;;8.10;1.23;;;;;;;19.41;38.54;101958.34;16118178;19;129959;-47
2023/03/28 17:30:12;;;;;;;8.55;1.48;;;;;;;19.36;38.21;101949.84;16121306;19;131438;-49
2023/03/28 17:35:34;;;;;;;6.47;1.38;;;;;;;19.30;38.27;101936.88;16113897;19;130955;-51
2023/03/28 17:40:56;;;;;;;7.97;1.55;;;;;;;19.30;38.81;101929.41;16120421;19;129343;-49
2023/03/28 17:46:18;;;;;;;12.10;1.45;;;;;;;19.48;38.67;101922.19;16123835;19;130671;-49
2023/03/28 17:51:40;;;;;;;7.57;1.20;;;;;;;19.77;38.52;101928.13;16123477;19;129534;-46
2023/03/28 17:57:03;;;;;;;11.50;1.90;;;;;;;20.03;37.70;101937.25;16118465;19;129915;-50
2023/03/28 18:02:25;;;;;;;19.55;1.45;;;;;;;20.27;37.72;101950.22;16122770;19;129610;-44
2023/03/28 18:07:48;;;;;;;7.60;1.20;;;;;;;20.51;37.35;101950.34;16121886;19;128954;-46
2023/03/28 18:13:10;;;;;;;3.67;1.05;;;;;;;20.70;37.57;101970.63;16122756;19;130290;-41
2023/03/28 18:18:32;;;;;;;8.65;1.15;;;;;;;20.87;37.19;101981.97;16119043;19;131171;-40
2023/03/28 18:23:54;;;;;;;6.35;1.20;;;;;;;21.00;37.05;101977.28;16120852;19;130459;-40
2023/03/28 18:29:16;;;;;;;9.98;1.38;;;;;;;21.01;36.86;101929.75;16120204;19;133002;-41
2023/03/28 18:34:40;;;;;;;9.70;1.20;;;;;;;20.99;37.14;101911.59;16117805;19;130829;-45
2023/03/28 18:40:06;;;;;;;10.25;1.33;;;;;;;20.95;36.85;101911.25;16121426;19;129734;-40
2023/03/28 18:45:27;;;;;;;15.75;1.38;;;;;;;20.82;36.95;101890.03;16117587;19;129742;-42
2023/03/28 18:50:49;;;;;;;9.75;1.00;;;;;;;20.73;36.93;101883.97;16115739;19;129693;-42
2023/03/28 18:56:12;;;;;;;8.70;1.02;;;;;;;20.65;37.29;101863.97;16115868;19;130414;-40
2023/03/28 19:01:34;;;;;;;8.13;1.00;;;;;;;20.57;37.26;101842.91;16118506;19;130974;-40
2023/03/28 19:06:56;;;;;;;8.93;1.20;;;;;;;20.52;37.48;101832.50;16116073;19;134455;-41
2023/03/28 19:12:18;;;;;;;10.68;1.08;;;;;;;20.46;37.10;101822.31;16116110;19;130861;-41
2023/03/28 19:17:40;;;;;;;5.13;1.10;;;;;;;20.42;37.42;101810.84;16114810;19;130182;-39
2023/03/28 19:23:02;;;;;;;5.07;0.80;;;;;;;20.38;37.08;101808.78;16114201;19;130376;-40
2023/03/28 19:28:24;;;;;;;9.10;2.08;;;;;;;20.33;37.68;101816.97;16111614;19;130137;-40
2023/03/28 19:33:46;;;;;;;11.80;1.25;;;;;;;20.27;38.49;101810.44;16107324;19;130712;-42
2023/03/28 19:39:08;;;;;;;7.45;1.05;;;;;;;20.21;38.69;101815.00;16111230;19;129793;-44
2023/03/28 19:44:31;;;;;;;12.88;1.27;;;;;;;20.19;39.19;101825.50;16113593;19;129271;-42
2023/03/28 19:49:53;;;;;;;8.95;1.15;;;;;;;20.18;39.87;101807.16;16114981;19;130927;-42
2023/03/28 19:55:16;;;;;;;10.82;1.60;;;;;;;20.15;40.08;101813.16;16111668;19;130951;-42
2023/03/28 20:00:38;;;;;;;9.23;0.85;;;;;;;20.13;40.25;101805.06;16121642;19;130025;-46
2023/03/28 20:06:06;;;;;;;8.23;1.05;;;;;;;20.11;40.65;101806.38;16126545;19;129218;-42
2023/03/28 20:11:28;;;;;;;13.85;1.50;;;;;;;20.04;41.02;101787.03;16129811;19;129395;-44
2023/03/28 20:16:50;;;;;;;13.52;1.00;;;;;;;20.03;41.21;101799.22;16126414;19;131228;-45
2023/03/28 20:22:13;;;;;;;10.15;0.95;;;;;;;20.06;40.84;101772.94;16122017;19;130403;-43
2023/03/28 20:27:36;;;;;;;10.45;1.30;;;;;;;20.05;41.44;101746.22;16118483;19;131570;-42
2023/03/28 20:32:58;;;;;;;7.75;0.98;;;;;;;20.05;41.85;101746.22;16122866;19;129543;-44
2023/03/28 20:38:20;;;;;;;8.07;0.80;;;;;;;20.06;41.75;101759.03;16120349;19;129535;-42
2023/03/28 20:43:45;;;;;;;10.10;0.70;;;;;;;20.03;41.55;101756.72;16115625;19;130528;-45
2023/03/28 20:49:08;;;;;;;12.90;1.20;;;;;;;19.99;41.63;101743.31;16119763;19;130147;-42
2023/03/28 20:54:29;;;;;;;7.55;1.15;;;;;;;19.96;42.12;101732.63;16122722;19;129935;-42
2023/03/28 20:59:54;;;;;;;8.85;0.93;;;;;;;19.95;41.55;101724.53;16123650;19;131302;-46
2023/03/28 21:05:17;;;;;;;13.10;1.33;;;;;;;19.90;41.97;101722.47;16122466;19;131752;-43
2023/03/28 21:10:39;;;;;;;11.73;1.05;;;;;;;19.85;41.96;101730.66;16116418;19;130638;-43
2023/03/28 21:16:01;;;;;;;2.92;0.63;;;;;;;19.80;42.43;101719.41;16124944;19;129662;-42
2023/03/28 21:21:23;;;;;;;8.63;1.30;;;;;;;19.76;42.43;101707.06;16123377;19;131500;-44
2023/03/28 21:26:45;;;;;;;7.25;0.90;;;;;;;19.74;42.65;101701.78;16120828;19;130918;-46
2023/03/28 21:32:08;;;;;;;14.18;1.50;;;;;;;19.65;41.73;101690.13;16118340;19;131011;-44
2023/03/28 21:37:30;;;;;;;10.98;0.93;;;;;;;19.58;42.13;101691.31;16121853;19;129579;-44
2023/03/28 21:42:52;;;;;;;11.30;0.85;;;;;;;19.52;42.17;101698.66;16121209;19;129483;-43
2023/03/28 21:48:15;;;;;;;8.00;1.02;;;;;;;19.46;42.09;101685.69;16120089;19;129796;-43
2023/03/28 21:53:38;;;;;;;2.88;0.65;;;;;;;19.41;42.59;101694.72;16117814;19;130602;-44
2023/03/28 21:59:00;;;;;;;5.43;0.60;;;;;;;19.35;42.68;101688.16;16119910;19;129864;-43
2023/03/28 22:04:22;;;;;;;6.10;0.57;;;;;;;19.29;42.79;101668.84;16123326;19;130270;-44
2023/03/28 22:09:44;;;;;;;7.50;0.52;;;;;;;19.24;42.69;101669.53;16118394;19;129719;-43
2023/03/28 22:15:06;;;;;;;3.40;0.55;;;;;;;19.19;42.90;101677.69;16119541;19;129445;-43
2023/03/28 22:20:28;;;;;;;8.45;0.55;;;;;;;19.15;42.48;101685.59;16117079;19;129449;-43
2023/03/28 22:25:51;;;;;;;6.30;0.60;;;;;;;19.12;42.62;101676.91;16113742;19;129976;-44
2023/03/28 22:31:15;;;;;;;6.30;0.70;;;;;;;19.09;42.84;101686.53;16115970;19;131315;-45
2023/03/28 22:36:37;;;;;;;5.68;0.45;;;;;;;19.04;42.86;101676.16;16116133;19;130494;-43
2023/03/28 22:41:59;;;;;;;2.75;0.43;;;;;;;19.02;42.87;101669.13;16118609;19;130038;-42
2023/03/28 22:47:28;;;;;;;2.83;0.50;;;;;;;18.98;43.18;101660.41;16112399;19;131742;-43
2023/03/28 22:52:51;;;;;;;3.20;0.40;;;;;;;18.95;43.22;101662.81;16114639;19;129829;-46
2023/03/28 22:58:14;;;;;;;4.10;0.40;;;;;;;18.91;43.27;101656.88;16112924;19;129640;-43
2023/03/28 23:03:36;;;;;;;1.23;0.32;;;;;;;18.89;42.98;101648.78;16113079;19;129489;-46
2023/03/28 23:08:59;;;;;;;3.40;0.50;;;;;;;18.86;43.22;101646.50;16111668;19;130376;-43
2023/03/28 23:14:21;;;;;;;3.38;0.40;;;;;;;18.83;43.28;101635.84;16113781;19;131315;-43
2023/03/28 23:19:43;;;;;;;2.95;0.30;;;;;;;18.79;43.37;101629.06;16113515;19;129639;-43
2023/03/28 23:25:07;;;;;;;1.77;0.32;;;;;;;18.76;43.53;101624.84;16113360;19;130191;-42
2023/03/28 23:30:29;;;;;;;1.00;0.32;;;;;;;18.75;43.01;101617.59;16114862;19;131610;-44
2023/03/28 23:35:52;;;;;;;1.77;0.40;;;;;;;18.72;43.19;101611.69;16109176;19;131101;-44
2023/03/28 23:41:14;;;;;;;2.08;0.30;;;;;;;18.69;43.21;101601.91;16113817;19;130391;-44
2023/03/28 23:46:35;;;;;;;1.48;0.38;;;;;;;18.67;43.49;101598.50;16111126;19;129554;-46
2023/03/28 23:51:57;;;;;;;1.45;0.35;;;;;;;18.65;43.43;101592.34;16115445;19;129703;-43
2023/03/28 23:57:19;;;;;;;0.95;0.40;;;;;;;18.63;43.56;101588.13;16111647;19;131885;-42
